Flight Track Log - Related Links

Times and Time Zones

All times are in EDT time to prevent confusion due to time zone crossing. See the PDT4155 flight status page for this flight to view local times or setup timezone preferences in your user account.

Time Position Orientation Groundspeed Altitude Reporting Facility
EDT Latitude Longitude Course Direction KTS MPH feet Rate Location/Type
Mon 07:05:00 AM 42.0464 -75.9266 180° South  Level Estimated
Mon 07:06:00 AM 41.9908 -75.9279 181° South  Level FlightAware Approximate
Mon 07:07:00 AM 41.9353 -75.9291 181° South  Level FlightAware Approximate
Mon 07:08:00 AM 41.8797 -75.9304 181° South  Level FlightAware Approximate
Mon 07:09:00 AM 41.8260 -75.9113 154° Southeast  Level Estimated
Mon 07:10:00 AM 41.7722 -75.8923 160° South  Level Estimated
Mon 07:11:00 AM 41.7184 -75.8734 159° South  Level Estimated
Mon 07:12:00 AM 41.6646 -75.8552 166° South  Level FlightAware Approximate
Mon 07:13:00 AM 41.6106 -75.8371 166° South  Level FlightAware Approximate
Mon 07:14:00 AM 41.5569 -75.8182 153° Southeast  Level Estimated
Mon 07:15:00 AM 41.5031 -75.7993 161° South  Level Estimated
Mon 07:16:00 AM 41.4510 -75.7736 160° South  Level FlightAware Approximate
Mon 07:17:00 AM 41.3988 -75.7480 160° South  Level FlightAware Approximate
Mon 07:18:00 AM 41.3450 -75.7297 162° South  Level Estimated
Mon 07:19:00 AM 41.2926 -75.7048 160° South  Level FlightAware Approximate
Mon 07:20:00 AM 41.2403 -75.6800 160° South  Level FlightAware Approximate
Mon 07:21:00 AM 41.1879 -75.6553 160° South  Level FlightAware Approximate
Mon 07:22:00 AM 41.1355 -75.6305 160° South  Level FlightAware Approximate
Mon 07:23:00 AM 41.0814 -75.6135 159° South  Level Estimated
Mon 07:24:00 AM 41.0274 -75.5965 163° South  Level Estimated
Mon 07:25:00 AM 40.9750 -75.5717 160° South  Level FlightAware Approximate
Mon 07:26:00 AM 40.9227 -75.5470 160° South  Level FlightAware Approximate
Mon 07:27:00 AM 40.8703 -75.5223 160° South  Level FlightAware Approximate
Mon 07:27:26 AM 40.7000 -75.5833 183° South 242 278 8,100  Level Philadelphia TRACON
Mon 07:27:56 AM 40.6667 -75.5833 180° South 243 280 7,700 -750 Descending Philadelphia TRACON
Mon 07:28:00 AM 40.8180 -75.4976 160° South  Level FlightAware Approximate
Mon 07:29:00 AM 40.7636 -75.4827 190° South  Level Estimated
Mon 07:29:02 AM 40.5833 -75.5833 180° South 261 300 6,900  Level Philadelphia TRACON
Mon 07:29:56 AM 40.5167 -75.5833 180° South 257 296 6,100 -881 Descending Philadelphia TRACON
Mon 07:30:00 AM 40.7080 -75.4863 183° South  Level FlightAware Approximate
Mon 07:30:51 AM 40.4667 -75.5333 143° Southeast 250 288 5,300  Level Philadelphia TRACON
Mon 07:31:00 AM 40.6525 -75.4900 183° South  Level FlightAware Approximate
Mon 07:31:51 AM 40.4000 -75.4833 150° Southeast 247 284 5,100  Level Philadelphia TRACON
Mon 07:32:00 AM 40.5970 -75.4936 183° South  Level FlightAware Approximate
Mon 07:32:51 AM 40.3500 -75.4333 143° Southeast 237 273 5,100  Level Philadelphia TRACON
Mon 07:33:51 AM 40.3000 -75.3667 135° Southeast 236 272 5,100 -450 Level Philadelphia TRACON
Mon 07:34:51 AM 40.2500 -75.3167 143° Southeast 250 288 4,200 -526 Descending Philadelphia TRACON
Mon 07:35:45 AM 40.2000 -75.2667 143° Southeast 247 284 4,100 -105 Descending Philadelphia TRACON
Mon 07:36:45 AM 40.1500 -75.2000 134° Southeast 238 274 4,000 -48 Descending Philadelphia TRACON
Mon 07:37:51 AM 40.1000 -75.1500 143° Southeast 216 249 4,000  Level Philadelphia TRACON
Mon 07:38:51 AM 40.0500 -75.1000 143° Southeast 213 245 4,000 -476 Level Philadelphia TRACON
Mon 07:39:57 AM 39.9833 -75.1000 180° South 210 242 3,000 -952 Descending Philadelphia TRACON
Mon 07:40:57 AM 39.9333 -75.1167 194° South 199 229 2,000 -900 Descending Philadelphia TRACON
Mon 07:41:57 AM 39.9000 -75.1500 217° Southwest 149 171 1,200 -850 Descending Philadelphia TRACON
Mon 07:42:57 AM 39.8833 -75.2000 247° West 118 136 300 -900 Descending Philadelphia TRACON

Login

Don't have an account? Register now (free) for customized features, flight alerts, and more!